createdAt,value
2022-12-31T00:01:25.268Z,70.47
2022-12-31T00:03:52.460Z,68.70
2022-12-31T00:06:25.570Z,66.80
2022-12-31T00:08:53.823Z,68.25
2022-12-31T00:11:21.181Z,70.43
2022-12-31T00:13:48.453Z,71.15
2022-12-31T00:16:18.829Z,61.55
2022-12-31T00:18:48.201Z,64.40
2022-12-31T00:21:15.203Z,68.85
2022-12-31T00:23:42.326Z,66.10
2022-12-31T00:26:16.911Z,68.43
2022-12-31T00:28:44.238Z,70.32
2022-12-31T00:31:40.049Z,73.60
2022-12-31T00:34:06.709Z,72.88
2022-12-31T00:36:35.853Z,73.70
2022-12-31T00:39:04.147Z,77.60
2022-12-31T00:41:31.522Z,68.78
2022-12-31T00:43:58.679Z,74.53
2022-12-31T00:46:25.626Z,68.28
2022-12-31T00:48:52.422Z,72.45
2022-12-31T00:51:21.700Z,67.20
2022-12-31T00:53:48.361Z,64.70
2022-12-31T00:56:17.455Z,61.85
2022-12-31T00:58:43.922Z,67.57
2022-12-31T01:01:20.739Z,80.80
2022-12-31T01:03:48.838Z,67.00
2022-12-31T01:06:16.263Z,64.05
2022-12-31T01:08:43.286Z,64.25
2022-12-31T01:11:24.371Z,62.00
2022-12-31T01:14:11.996Z,67.00
2022-12-31T01:16:44.703Z,71.53
2022-12-31T01:19:14.063Z,60.92
2022-12-31T01:21:42.430Z,70.95
2022-12-31T01:24:10.504Z,73.80
2022-12-31T01:26:37.737Z,67.15
2022-12-31T01:29:05.773Z,63.30
2022-12-31T01:31:34.056Z,68.80
2022-12-31T01:34:00.667Z,53.67
2022-12-31T01:36:29.641Z,71.10
2022-12-31T01:38:58.525Z,57.80
2022-12-31T01:41:28.807Z,64.47
2022-12-31T01:44:13.264Z,67.32
2022-12-31T01:46:49.499Z,56.67
2022-12-31T01:49:15.854Z,62.95
2022-12-31T01:51:45.302Z,59.08
2022-12-31T01:54:15.609Z,72.32
2022-12-31T01:56:43.181Z,66.25
2022-12-31T01:59:11.135Z,60.65
2022-12-31T02:01:38.910Z,74.88
2022-12-31T02:04:09.677Z,66.70
2022-12-31T02:06:44.381Z,60.03
2022-12-31T02:09:11.973Z,55.33
2022-12-31T02:11:38.594Z,60.80
2022-12-31T02:14:14.627Z,60.70
2022-12-31T02:17:15.037Z,65.18
2022-12-31T02:19:56.672Z,63.45
2022-12-31T02:25:16.683Z,65.32
2022-12-31T02:28:08.889Z,61.38
2022-12-31T02:30:37.188Z,61.85
2022-12-31T02:33:03.571Z,57.47
2022-12-31T02:35:51.537Z,61.17
2022-12-31T02:38:31.270Z,52.80
2022-12-31T02:40:58.007Z,50.30
2022-12-31T02:43:25.312Z,58.65
2022-12-31T02:46:20.906Z,50.22
2022-12-31T02:49:08.663Z,58.65
2022-12-31T02:51:59.141Z,56.65
2022-12-31T02:54:40.501Z,58.33
2022-12-31T02:57:21.449Z,47.42
2022-12-31T03:00:14.235Z,52.58
2022-12-31T03:02:43.465Z,53.40
2022-12-31T03:05:12.664Z,46.92
2022-12-31T03:07:40.609Z,47.42
2022-12-31T03:10:07.821Z,55.35
2022-12-31T03:12:47.993Z,49.60
2022-12-31T03:15:23.709Z,53.00
2022-12-31T03:18:14.621Z,54.53
2022-12-31T03:21:09.394Z,54.85
2022-12-31T03:23:43.751Z,53.42
2022-12-31T03:26:12.313Z,46.95
2022-12-31T03:28:41.096Z,58.42
2022-12-31T03:31:08.299Z,56.00
2022-12-31T03:33:40.550Z,52.17
2022-12-31T03:36:14.608Z,51.15
2022-12-31T03:38:41.710Z,54.38
2022-12-31T03:41:10.745Z,49.45
2022-12-31T03:43:37.154Z,47.42
2022-12-31T03:46:03.586Z,56.60
2022-12-31T03:48:30.410Z,50.55
2022-12-31T03:50:56.773Z,49.42
2022-12-31T03:53:23.247Z,46.80
2022-12-31T03:55:53.547Z,48.95
2022-12-31T03:58:20.726Z,60.35
2022-12-31T04:00:47.179Z,51.83
2022-12-31T04:03:13.610Z,54.42
2022-12-31T04:05:41.110Z,47.88
2022-12-31T04:08:07.574Z,47.67
2022-12-31T04:10:33.953Z,54.20
2022-12-31T04:13:02.366Z,52.90
2022-12-31T04:15:28.855Z,53.88
2022-12-31T04:17:55.352Z,51.85
2022-12-31T04:20:21.737Z,55.67
2022-12-31T04:22:48.113Z,47.67
2022-12-31T04:25:14.565Z,53.00
2022-12-31T04:27:43.424Z,62.42
2022-12-31T04:30:11.739Z,52.33
2022-12-31T04:32:38.171Z,55.58
2022-12-31T04:35:05.152Z,56.78
2022-12-31T04:37:31.548Z,54.22
2022-12-31T04:40:03.681Z,48.88
2022-12-31T04:42:32.192Z,54.00
2022-12-31T04:44:58.613Z,57.28
2022-12-31T04:47:25.036Z,49.97
2022-12-31T04:49:51.494Z,53.88
2022-12-31T04:52:17.942Z,55.58
2022-12-31T04:54:44.332Z,51.65
2022-12-31T04:57:10.771Z,49.30
2022-12-31T04:59:37.277Z,50.35
2022-12-31T05:02:03.952Z,50.45
2022-12-31T05:04:30.569Z,50.53
2022-12-31T05:06:57.016Z,51.88
2022-12-31T05:09:24.185Z,47.13
2022-12-31T05:11:51.045Z,55.97
2022-12-31T05:14:17.590Z,50.63
2022-12-31T05:16:44.068Z,57.83
2022-12-31T05:19:10.606Z,49.70
2022-12-31T05:21:37.089Z,53.53
2022-12-31T05:24:03.688Z,48.22
2022-12-31T05:26:30.228Z,56.50
2022-12-31T05:28:56.738Z,51.63
2022-12-31T05:31:23.155Z,54.20
2022-12-31T05:33:49.668Z,56.67
2022-12-31T05:36:16.071Z,48.42
2022-12-31T05:38:42.462Z,50.08
2022-12-31T05:41:09.000Z,59.20
2022-12-31T05:43:35.533Z,47.72
2022-12-31T05:46:03.767Z,53.10
2022-12-31T05:48:31.312Z,53.38
2022-12-31T05:50:57.912Z,61.53
2022-12-31T05:53:24.340Z,51.97
2022-12-31T05:55:50.950Z,56.78
2022-12-31T05:58:17.375Z,55.53
2022-12-31T06:00:43.872Z,49.38
2022-12-31T06:03:10.879Z,53.42
2022-12-31T06:05:43.800Z,50.58
2022-12-31T06:08:12.011Z,57.65
2022-12-31T06:10:38.844Z,50.75
2022-12-31T06:13:07.288Z,47.35
2022-12-31T06:15:37.609Z,48.15
2022-12-31T06:18:04.192Z,47.60
2022-12-31T06:20:30.585Z,55.95
2022-12-31T06:22:57.017Z,52.92
2022-12-31T06:25:23.416Z,52.05
2022-12-31T06:27:49.863Z,47.67
2022-12-31T06:30:16.274Z,47.85
2022-12-31T06:32:42.763Z,49.58
2022-12-31T06:35:09.437Z,47.97
2022-12-31T06:37:35.868Z,52.00
2022-12-31T06:40:02.310Z,60.05
2022-12-31T06:42:30.831Z,51.10
2022-12-31T06:44:58.489Z,56.03
2022-12-31T06:47:25.092Z,77.25
2022-12-31T06:49:52.179Z,66.47
2022-12-31T06:52:18.833Z,52.15
2022-12-31T06:54:45.572Z,57.42
2022-12-31T06:57:20.869Z,54.95
2022-12-31T06:59:47.625Z,53.90
2022-12-31T07:02:14.133Z,52.95
2022-12-31T07:04:58.082Z,51.00
2022-12-31T07:07:33.127Z,53.28
2022-12-31T07:10:29.927Z,46.58
2022-12-31T07:13:20.444Z,47.95
2022-12-31T07:16:06.164Z,57.08
2022-12-31T07:18:56.407Z,45.25
2022-12-31T07:21:33.266Z,58.95
2022-12-31T07:24:00.136Z,53.65
2022-12-31T07:26:56.528Z,55.05
2022-12-31T07:29:47.826Z,52.22
2022-12-31T07:32:42.336Z,51.67
2022-12-31T07:35:16.170Z,46.35
2022-12-31T07:38:19.750Z,51.30
2022-12-31T07:41:10.073Z,59.03
2022-12-31T07:43:42.578Z,59.67
2022-12-31T07:46:41.027Z,48.13
2022-12-31T07:49:14.218Z,46.83
2022-12-31T07:51:41.666Z,52.10
2022-12-31T07:54:13.596Z,58.55
2022-12-31T07:56:41.282Z,56.80
2022-12-31T07:59:22.458Z,50.65
2022-12-31T08:01:52.259Z,54.42
2022-12-31T08:04:46.204Z,58.92
2022-12-31T08:07:24.849Z,49.13
2022-12-31T08:09:54.065Z,52.65
2022-12-31T08:12:21.492Z,51.00
2022-12-31T08:14:48.428Z,57.83
2022-12-31T08:17:17.239Z,57.13
2022-12-31T08:19:45.728Z,58.80
2022-12-31T08:23:03.136Z,57.80
2022-12-31T08:25:32.635Z,63.50
2022-12-31T08:28:04.771Z,61.35
2022-12-31T08:30:58.268Z,71.53
2022-12-31T08:33:30.710Z,60.53
2022-12-31T08:36:09.837Z,60.92
2022-12-31T08:38:40.987Z,62.90
2022-12-31T08:41:27.161Z,57.45
2022-12-31T08:44:15.295Z,63.45
2022-12-31T08:47:00.646Z,62.55
2022-12-31T08:49:29.169Z,57.65
2022-12-31T08:51:56.070Z,68.95
2022-12-31T08:54:22.825Z,62.03
2022-12-31T08:56:57.823Z,59.05
2022-12-31T09:00:09.554Z,57.85
2022-12-31T09:03:13.299Z,55.42
2022-12-31T09:06:18.169Z,59.38
2022-12-31T09:09:03.111Z,55.63
2022-12-31T09:11:47.959Z,61.90
2022-12-31T09:14:54.459Z,55.28
2022-12-31T09:17:31.898Z,57.08
2022-12-31T09:19:58.682Z,63.55
2022-12-31T09:22:25.469Z,62.70
2022-12-31T09:24:52.108Z,55.05
2022-12-31T09:27:35.949Z,68.43
2022-12-31T09:30:07.713Z,58.95
2022-12-31T09:32:42.740Z,55.67
2022-12-31T09:35:36.568Z,62.40
2022-12-31T09:38:14.115Z,56.78
2022-12-31T09:41:17.288Z,64.13
2022-12-31T09:44:14.730Z,68.85
2022-12-31T09:46:53.319Z,129.18
2022-12-31T09:49:34.888Z,102.85
2022-12-31T09:54:59.697Z,55.78
2022-12-31T09:57:32.166Z,49.88
2022-12-31T10:00:04.755Z,76.43
2022-12-31T10:03:00.661Z,63.25
2022-12-31T10:05:49.650Z,57.08
2022-12-31T10:08:34.061Z,56.15
2022-12-31T10:11:32.674Z,57.05
2022-12-31T10:14:22.422Z,57.38
2022-12-31T10:17:12.920Z,62.80
2022-12-31T10:20:00.702Z,55.97
2022-12-31T10:23:02.535Z,54.92
2022-12-31T10:28:14.803Z,56.67
2022-12-31T10:30:54.205Z,55.75
2022-12-31T10:33:31.179Z,54.70
2022-12-31T10:36:09.429Z,59.70
2022-12-31T10:39:20.495Z,54.85
2022-12-31T10:42:23.317Z,51.90
2022-12-31T10:45:30.460Z,56.88
2022-12-31T10:48:45.379Z,60.22
2022-12-31T10:51:24.670Z,68.78
2022-12-31T10:54:09.318Z,57.38
2022-12-31T10:57:07.457Z,60.28
2022-12-31T10:59:46.248Z,57.88
2022-12-31T11:02:30.567Z,60.00
2022-12-31T11:05:34.711Z,58.45
2022-12-31T11:08:43.792Z,55.05
2022-12-31T11:11:43.675Z,59.58
2022-12-31T11:14:55.470Z,55.83
2022-12-31T11:17:38.755Z,54.83
2022-12-31T11:20:31.799Z,52.25
2022-12-31T11:23:01.558Z,54.13
2022-12-31T11:25:47.783Z,55.78
2022-12-31T11:28:25.265Z,77.60
2022-12-31T11:30:55.822Z,54.60
2022-12-31T11:33:59.301Z,57.77
2022-12-31T11:36:57.531Z,61.45
2022-12-31T11:39:36.266Z,64.47
2022-12-31T11:42:25.126Z,68.75
2022-12-31T11:45:12.690Z,63.97
2022-12-31T11:48:29.528Z,63.83
2022-12-31T11:51:28.027Z,53.85
2022-12-31T11:54:42.979Z,58.20
2022-12-31T11:57:30.382Z,55.17
2022-12-31T12:00:03.881Z,58.22
2022-12-31T12:02:35.648Z,49.67
2022-12-31T12:05:10.637Z,57.13
2022-12-31T12:07:38.307Z,59.92
2022-12-31T12:10:23.044Z,59.50
2022-12-31T12:12:51.950Z,54.78
2022-12-31T12:15:39.291Z,62.03
2022-12-31T12:18:26.665Z,61.22
2022-12-31T12:21:03.003Z,60.03
2022-12-31T12:23:29.478Z,53.50
2022-12-31T12:25:55.884Z,51.97
2022-12-31T12:28:25.305Z,58.58
2022-12-31T12:31:01.471Z,55.75
2022-12-31T12:33:30.330Z,68.38
2022-12-31T12:36:10.875Z,61.83
2022-12-31T12:38:37.604Z,54.42
2022-12-31T12:41:06.848Z,50.63
2022-12-31T12:43:35.911Z,55.92
2022-12-31T12:46:06.589Z,56.83
2022-12-31T12:48:43.184Z,57.53
2022-12-31T12:51:52.373Z,49.17
2022-12-31T12:54:37.598Z,54.97
2022-12-31T12:57:16.193Z,64.03
2022-12-31T13:00:04.376Z,74.53
2022-12-31T13:02:49.541Z,69.25
2022-12-31T13:05:48.507Z,74.78
2022-12-31T13:08:34.197Z,56.63
2022-12-31T13:11:15.728Z,52.58
2022-12-31T13:16:33.295Z,75.13
2022-12-31T13:19:05.794Z,53.92
2022-12-31T13:22:14.514Z,54.42
2022-12-31T13:24:43.703Z,60.63
2022-12-31T13:27:24.821Z,52.38
2022-12-31T13:29:53.414Z,53.88
2022-12-31T13:32:29.542Z,59.78
2022-12-31T13:35:03.484Z,52.35
2022-12-31T13:37:42.130Z,66.47
2022-12-31T13:40:23.764Z,75.97
2022-12-31T13:42:58.197Z,54.45
2022-12-31T13:45:30.590Z,60.60
2022-12-31T13:48:05.613Z,54.22
2022-12-31T13:50:38.985Z,56.92
2022-12-31T13:53:25.867Z,50.67
2022-12-31T13:55:59.042Z,50.95
2022-12-31T13:58:40.913Z,61.80
2022-12-31T14:01:19.171Z,58.17
2022-12-31T14:04:23.286Z,58.55
2022-12-31T14:07:13.966Z,56.47
2022-12-31T14:09:40.501Z,54.47
2022-12-31T14:12:32.429Z,88.78
2022-12-31T14:15:07.721Z,77.07
2022-12-31T14:17:46.823Z,72.63
2022-12-31T14:20:19.638Z,57.10
2022-12-31T14:22:55.278Z,56.17
2022-12-31T14:25:34.994Z,56.25
2022-12-31T14:28:05.808Z,59.60
2022-12-31T14:30:40.249Z,52.40
2022-12-31T14:33:17.331Z,58.67
2022-12-31T14:35:59.011Z,53.67
2022-12-31T14:38:56.379Z,60.67
2022-12-31T14:41:44.572Z,59.67
2022-12-31T14:44:40.188Z,57.53
2022-12-31T14:47:12.811Z,56.30
2022-12-31T14:50:21.178Z,51.70
2022-12-31T14:52:49.140Z,53.33
2022-12-31T14:55:15.579Z,55.75
2022-12-31T14:58:25.876Z,62.33
2022-12-31T15:00:34.721Z,64.45
2022-12-31T15:03:07.118Z,56.00
2022-12-31T15:05:36.673Z,58.85
2022-12-31T15:08:19.378Z,63.45
2022-12-31T15:10:49.954Z,66.45
2022-12-31T15:13:25.303Z,56.53
2022-12-31T15:16:02.627Z,51.40
2022-12-31T15:18:57.730Z,57.50
2022-12-31T15:21:47.411Z,58.15
2022-12-31T15:24:21.124Z,57.83
2022-12-31T15:26:51.030Z,59.97
2022-12-31T15:29:28.120Z,57.85
2022-12-31T15:31:57.439Z,69.20
2022-12-31T15:34:32.932Z,59.58
2022-12-31T15:37:05.068Z,59.22
2022-12-31T15:39:31.463Z,58.75
2022-12-31T15:44:56.741Z,66.47
2022-12-31T15:47:37.402Z,57.78
2022-12-31T15:50:07.906Z,68.60
2022-12-31T15:52:49.887Z,68.00
2022-12-31T15:55:44.010Z,59.35
2022-12-31T15:58:21.193Z,59.53
2022-12-31T16:01:22.908Z,56.55
2022-12-31T16:06:27.483Z,65.93
2022-12-31T16:08:55.472Z,62.47
2022-12-31T16:11:23.038Z,59.38
2022-12-31T16:13:53.231Z,64.80
2022-12-31T16:16:23.812Z,58.13
2022-12-31T16:18:50.738Z,53.85
2022-12-31T16:21:35.860Z,53.22
2022-12-31T16:24:23.079Z,59.53
2022-12-31T16:26:52.916Z,57.35
2022-12-31T16:29:21.636Z,52.45
2022-12-31T16:31:50.065Z,57.63
2022-12-31T16:34:21.884Z,50.05
2022-12-31T16:37:05.384Z,56.08
2022-12-31T16:39:34.148Z,51.33
2022-12-31T16:42:23.299Z,55.33
2022-12-31T16:44:51.406Z,53.05
2022-12-31T16:47:35.050Z,58.30
2022-12-31T16:50:15.528Z,53.83
2022-12-31T16:52:44.716Z,55.83
2022-12-31T16:55:24.639Z,58.28
2022-12-31T16:57:55.617Z,56.38
2022-12-31T17:00:24.662Z,67.50
2022-12-31T17:03:15.869Z,66.07
2022-12-31T17:06:05.632Z,60.83
2022-12-31T17:08:54.666Z,53.53
2022-12-31T17:11:28.587Z,57.05
2022-12-31T17:14:16.740Z,52.30
2022-12-31T17:17:04.174Z,57.92
2022-12-31T17:19:38.391Z,56.03
2022-12-31T17:22:10.389Z,57.20
2022-12-31T17:24:38.433Z,57.80
2022-12-31T17:27:07.286Z,73.55
2022-12-31T17:29:34.450Z,67.95
2022-12-31T17:32:05.416Z,60.92
2022-12-31T17:34:51.034Z,85.20
2022-12-31T17:37:26.765Z,73.15
2022-12-31T17:39:56.468Z,70.65
2022-12-31T17:42:36.796Z,64.95
2022-12-31T17:45:12.089Z,59.63
2022-12-31T17:47:41.276Z,55.90
2022-12-31T17:50:20.426Z,55.50
2022-12-31T17:52:47.472Z,61.17
2022-12-31T17:55:14.631Z,51.53
2022-12-31T17:57:50.229Z,51.08
2022-12-31T18:00:19.738Z,61.47
2022-12-31T18:02:46.307Z,54.72
2022-12-31T18:05:21.784Z,56.90
2022-12-31T18:07:48.704Z,51.13
2022-12-31T18:10:16.875Z,51.65
2022-12-31T18:12:45.131Z,54.58
2022-12-31T18:15:17.010Z,65.28
2022-12-31T18:17:43.835Z,60.03
2022-12-31T18:20:10.792Z,64.28
2022-12-31T18:22:38.521Z,57.75
2022-12-31T18:25:07.254Z,61.08
2022-12-31T18:27:34.747Z,57.17
2022-12-31T18:30:04.808Z,61.45
2022-12-31T18:32:33.336Z,60.17
2022-12-31T18:34:59.731Z,61.33
2022-12-31T18:37:29.469Z,55.13
2022-12-31T18:39:55.894Z,58.67
2022-12-31T18:42:25.436Z,64.60
2022-12-31T18:44:52.062Z,56.15
2022-12-31T18:47:20.151Z,62.17
2022-12-31T18:49:48.449Z,64.13
2022-12-31T18:52:20.704Z,57.65
2022-12-31T18:54:47.550Z,60.22
2022-12-31T18:57:15.650Z,62.13
2022-12-31T18:59:42.307Z,52.05
2022-12-31T19:02:18.898Z,57.40
2022-12-31T19:04:45.740Z,55.00
2022-12-31T19:07:12.708Z,55.38
2022-12-31T19:09:50.067Z,58.10
2022-12-31T19:12:19.594Z,62.45
2022-12-31T19:14:46.099Z,70.82
2022-12-31T19:17:12.554Z,62.83
2022-12-31T19:19:38.982Z,57.42
2022-12-31T19:22:05.505Z,65.50
2022-12-31T19:24:32.014Z,64.13
2022-12-31T19:27:01.032Z,69.65
2022-12-31T19:29:28.345Z,67.80
2022-12-31T19:31:55.004Z,69.53
2022-12-31T19:34:21.588Z,70.85
2022-12-31T19:36:48.114Z,65.90
2022-12-31T19:39:18.100Z,72.10
2022-12-31T19:41:45.664Z,65.38
2022-12-31T19:44:20.813Z,69.18
2022-12-31T19:46:49.085Z,66.90
2022-12-31T19:49:15.537Z,74.80
2022-12-31T19:51:42.608Z,75.00
2022-12-31T19:54:11.932Z,69.10
2022-12-31T19:56:38.388Z,76.93
2022-12-31T19:59:06.328Z,70.30
2022-12-31T20:01:33.175Z,73.25
2022-12-31T20:03:59.747Z,72.45
2022-12-31T20:06:26.255Z,71.60
2022-12-31T20:08:52.781Z,69.93
2022-12-31T20:11:21.677Z,62.72
2022-12-31T20:13:49.452Z,65.00
2022-12-31T20:16:17.680Z,69.78
2022-12-31T20:18:46.191Z,74.57
2022-12-31T20:21:21.049Z,75.30
2022-12-31T20:23:52.051Z,64.88
2022-12-31T20:26:20.237Z,64.40
2022-12-31T20:28:47.000Z,67.35
2022-12-31T20:31:16.935Z,68.68
2022-12-31T20:33:44.692Z,64.07
2022-12-31T20:36:13.675Z,65.65
2022-12-31T20:38:40.535Z,75.45
2022-12-31T20:41:27.292Z,81.90
2022-12-31T20:43:53.813Z,60.60
2022-12-31T20:46:23.131Z,73.97
2022-12-31T20:48:52.083Z,62.42
2022-12-31T20:51:19.957Z,64.43
2022-12-31T20:53:48.664Z,74.30
2022-12-31T20:56:16.294Z,76.28
2022-12-31T20:58:42.882Z,88.43
2022-12-31T21:01:10.612Z,72.03
2022-12-31T21:04:04.871Z,77.60
2022-12-31T21:06:25.669Z,80.90
2022-12-31T21:08:52.560Z,73.10
2022-12-31T21:11:37.623Z,75.90
2022-12-31T21:14:04.193Z,83.28
2022-12-31T21:16:30.651Z,76.00
2022-12-31T21:18:57.076Z,79.32
2022-12-31T21:21:24.045Z,69.50
2022-12-31T21:23:50.718Z,71.35
2022-12-31T21:26:17.432Z,70.18
2022-12-31T21:28:43.984Z,66.90
2022-12-31T21:31:12.967Z,62.90
2022-12-31T21:33:39.630Z,71.35
2022-12-31T21:36:06.251Z,96.57
2022-12-31T21:38:36.288Z,77.47
2022-12-31T21:41:05.136Z,69.65
2022-12-31T21:43:31.624Z,69.07
2022-12-31T21:46:06.112Z,65.85
2022-12-31T21:48:33.599Z,97.20
2022-12-31T21:51:09.289Z,65.00
2022-12-31T21:53:37.241Z,59.85
2022-12-31T21:56:15.915Z,56.22
2022-12-31T22:02:16.820Z,76.50
2022-12-31T22:05:01.788Z,67.80
2022-12-31T22:07:29.001Z,76.60
2022-12-31T22:09:55.547Z,69.97
2022-12-31T22:12:22.008Z,69.35
2022-12-31T22:15:14.299Z,71.35
2022-12-31T22:17:34.955Z,75.35
2022-12-31T22:20:25.773Z,71.63
2022-12-31T22:22:48.578Z,69.68
2022-12-31T22:25:16.151Z,74.68
2022-12-31T22:27:48.693Z,72.93
2022-12-31T22:30:24.743Z,69.30
2022-12-31T22:32:51.131Z,69.88
2022-12-31T22:35:17.571Z,70.38
2022-12-31T22:37:56.871Z,64.63
2022-12-31T22:40:24.448Z,70.75
2022-12-31T22:42:50.873Z,70.50
2022-12-31T22:45:17.286Z,72.97
2022-12-31T22:47:43.668Z,64.20
2022-12-31T22:50:10.081Z,70.10
2022-12-31T22:52:36.503Z,70.93
2022-12-31T22:55:03.092Z,71.25
2022-12-31T22:57:29.481Z,65.60
2022-12-31T22:59:55.849Z,75.63
2022-12-31T23:02:22.322Z,67.10
2022-12-31T23:04:48.781Z,65.50
2022-12-31T23:07:15.247Z,66.30
2022-12-31T23:10:00.125Z,75.10
2022-12-31T23:12:26.670Z,72.40
2022-12-31T23:15:11.790Z,79.03
2022-12-31T23:17:56.665Z,60.95
2022-12-31T23:20:42.933Z,67.40
2022-12-31T23:23:15.354Z,68.28
2022-12-31T23:25:47.501Z,88.45
2022-12-31T23:28:17.805Z,153.30
2022-12-31T23:30:44.433Z,108.50
2022-12-31T23:33:19.741Z,67.15
2022-12-31T23:35:46.566Z,63.03
2022-12-31T23:38:13.672Z,64.00
2022-12-31T23:40:40.147Z,61.00
2022-12-31T23:43:08.160Z,75.10
2022-12-31T23:45:35.159Z,126.00
2022-12-31T23:48:02.093Z,82.60
2022-12-31T23:50:28.805Z,87.05
2022-12-31T23:52:55.261Z,78.80
2022-12-31T23:55:21.878Z,83.32
2022-12-31T23:57:48.288Z,92.80
